Cofield, NC (27922)

4:02 PM EDT on July 29, 2014 (GMT -0400)
Nowell Farm Road (KNCCOLER2) Elev 75 ft | 36.19 °N, 76.82 °W | Change Station

Current weather conditions updated 5 seconds ago

Clear
Clear
84.2 °F
Feels Like 85 °F
N
4.3
Wind Variable Wind from NNW
Gusts 4.9 mph

Tomorrow is forecast to be nearly the same temperature as today.

Today
High -- | Low -- °F
--% Chance of Precip.
Yesterday
High -- | Low -- °F
Precip. -- in
6:11 AM 8:15 PM
Waxing Crescent, 7% visible
Pressure 29.94 in
Visibility 10.0 miles
Clouds Clear
Heat Index 85 °F
Dew Point 62 °F
Humidity 47%
Rainfall 0.00 in
Snow Depth Not available.
UV 8 out of 12
Pollen 6.90 out of 12
Air Quality Not available.
Flu Activity Not available.
METAR KASJ 291955Z AUTO 34005KT 10SM CLR 26/12 A2994 RMK AO2 T02600118

More Conditions Fewer Conditions

Pressure 29.94 in
Visibility 10.0 miles
Clouds Clear
Heat Index 85 °F
Dew Point 62 °F
Humidity 47%
Rainfall 0.00 in
Snow Depth Not available.
UV 8 out of 12
Pollen 6.90 out of 12
Air Quality Not available.
Flu Activity Not available.
METAR KASJ 291955Z AUTO 34005KT 10SM CLR 26/12 A2994 RMK AO2 T02600118

More Conditions Fewer Conditions

10-Day Weather Forecast

Almanac

Astronomy

Jul. 29, 2014 Rise Set
Actual Time 6:11 AM EDT 8:15 PM EDT
Civil Twilight 5:43 AM EDT 8:44 PM EDT
Nautical Twilight 5:08 AM EDT 9:18 PM EDT
Astronomical Twilight 4:30 AM EDT 9:56 PM EDT
Moon 8:40 AM EDT 9:33 PM EDT
Length of Visible Light 15h 01m
Length of Day
14h 03m
Tomorrow will be 1m 40s shorter.
Waxing Crescent, 7% of the Moon is Illuminated
Today
Waxing Crescent
Aug 3
First Quarter
Aug 10
Full
Aug 17
Last Quarter
Aug 25
New

Today's Extremes

State Highs State Lows

Community

WunderPhotos

Upload Photos

1,738,843 photos uploaded!

Nearby

Snow Depth

Station Depth Elevation
No new snow has been reported.

Earthquake Activity

City Distance Mag. Time & Date
No recent earthquake activity has been reported nearby.
Minimum magnitude displayed is 2.5.

Coastal Water Temperatures

Place Temperature
Oregon Inlet Marina, NC 78.1 °F
Duck Pier, NC 70.0 °F
Hatteras, NC 80.1 °F
Money Point, VA 82.0 °F
Sewells Point, VA 80.1 °F
Chesapeake Bay Bridge Tunnel, VA 77.0 °F

Nearby Weather Stations

Station Location Temp. Heat Index Dew Point Humidity Wind Precip. Elev Updated Type
Nowell Farm Road, Colerain, NC 84.2 °F 85 °F 62 °F 47% NNW  at  4.3 mph 0.00 in / hr 75 ft 4:02 PM EDT Rapid Fire
Ashley's Grove, Conway, NC 80.7 °F 81 °F 60 °F 50% NNW  at  1.0 mph 0.00 in / hr 65 ft 4:02 PM EDT Rapid Fire
GPKandSon, Corapeake, NC 86.9 °F 90 °F 67 °F 51% East  at  0.0 mph 0.00 in / hr 45 ft 3:53 PM EDT Normal
Whaleyville, Suffolk, VA 72.8 °F 77 °F 55 °F 53% NW  at  0.0 mph 0.00 in / hr 98 ft 4:02 PM EDT Rapid Fire
Conway - 35S, Conway, NC 78.4 °F 79 °F 54 °F 43% NE  at  1.0 mph 0.00 in / hr 105 ft 4:02 PM EDT Normal

Show More Stations Show Fewer Stations